Time;durP1;ratioP1;P1;durP2;ratioP2;P2;SDS_P1;SDS_P2;PMS_P1;PMS_P2;Temp;Humidity;BMP_temperature;BMP_pressure;BME280_temperature;BME280_humidity;BME280_pressure;Samples;Min_cycle;Max_cycle;Signal;HPM_P1;HPM_P2
2022/06/22 00:02:14;;;;;;;18.73;10.38;;;;;;;10.62;88.01;101263.72;5093682;28;20342;-47
2022/06/22 00:04:57;;;;;;;22.00;11.77;;;;;;;10.54;88.69;101264.31;5093167;28;20383;-45
2022/06/22 00:07:28;;;;;;;25.52;13.88;;;;;;;10.45;90.85;101266.56;5094010;28;20038;-46
2022/06/22 00:09:56;;;;;;;24.33;13.40;;;;;;;10.42;91.67;101263.88;5093735;28;20034;-45
2022/06/22 00:12:29;;;;;;;28.20;15.50;;;;;;;10.41;91.91;101263.84;5093056;28;20031;-45
2022/06/22 00:14:58;;;;;;;33.28;18.33;;;;;;;10.41;92.83;101256.09;5093744;28;20059;-45
2022/06/22 00:17:36;;;;;;;27.83;15.32;;;;;;;10.36;92.02;101249.06;5092744;28;20102;-45
2022/06/22 00:20:08;;;;;;;38.67;21.30;;;;;;;10.45;94.60;101245.94;5093630;28;20023;-44
2022/06/22 00:22:53;;;;;;;36.13;21.85;;;;;;;10.46;94.87;101245.13;5093718;28;20102;-47
2022/06/22 00:25:22;;;;;;;36.63;20.88;;;;;;;10.47;95.03;101231.44;5092821;28;20028;-45
2022/06/22 00:27:47;;;;;;;38.03;21.15;;;;;;;10.48;95.17;101228.03;5093493;28;20024;-45
2022/06/22 00:30:27;;;;;;;42.92;22.52;;;;;;;10.48;95.73;101225.47;5093316;28;20047;-45
2022/06/22 00:33:14;;;;;;;41.90;23.67;;;;;;;10.54;96.14;101238.53;5092738;28;20085;-45
2022/06/22 00:35:45;;;;;;;46.97;24.50;;;;;;;10.65;97.07;101243.19;5093459;28;20051;-44
2022/06/22 00:38:17;;;;;;;43.92;23.58;;;;;;;10.69;97.34;101245.06;5093076;28;20095;-47
2022/06/22 00:40:42;;;;;;;44.88;23.35;;;;;;;10.70;96.61;101244.25;5092587;28;20353;-46
2022/06/22 00:43:13;;;;;;;45.95;24.80;;;;;;;10.72;97.42;101237.44;5093133;28;20039;-48
2022/06/22 00:45:40;;;;;;;45.78;23.42;;;;;;;10.73;97.19;101239.22;5092409;28;20421;-45
2022/06/22 00:48:10;;;;;;;51.53;24.73;;;;;;;10.77;97.98;101227.28;5092944;28;20430;-45
2022/06/22 00:50:48;;;;;;;53.17;25.83;;;;;;;10.78;97.84;101232.53;5093101;28;20032;-46
2022/06/22 00:53:38;;;;;;;51.10;25.30;;;;;;;10.84;97.87;101243.03;5092378;28;20028;-46
2022/06/22 00:56:16;;;;;;;52.08;25.83;;;;;;;10.90;97.61;101247.53;5080064;28;20479;-45
2022/06/22 00:58:56;;;;;;;48.85;23.95;;;;;;;10.94;97.86;101238.22;5092886;28;20035;-46
2022/06/22 01:01:35;;;;;;;48.88;24.48;;;;;;;10.90;97.15;101231.16;5092431;28;20104;-45
2022/06/22 01:04:06;;;;;;;46.25;23.00;;;;;;;10.86;96.79;101225.06;5092906;28;20039;-44
2022/06/22 01:07:10;;;;;;;42.50;23.60;;;;;;;10.83;96.11;101235.25;5092633;28;20479;-46
2022/06/22 01:10:24;;;;;;;47.85;24.75;;;;;;;10.79;96.18;101241.97;5092135;28;20064;-45
2022/06/22 01:12:59;;;;;;;45.85;26.48;;;;;;;10.75;97.64;101227.25;5016179;28;20092;-44
2022/06/22 01:15:33;;;;;;;55.47;28.17;;;;;;;10.78;98.64;101216.16;5092120;28;20111;-46
2022/06/22 01:18:06;;;;;;;59.20;28.40;;;;;;;10.80;99.40;101220.53;5092821;28;20028;-44
2022/06/22 01:21:07;;;;;;;53.92;26.73;;;;;;;10.85;99.71;101234.47;5092921;28;20073;-46
2022/06/22 01:24:13;;;;;;;57.78;27.90;;;;;;;10.88;99.28;101244.00;5092743;28;20063;-46
2022/06/22 01:26:45;;;;;;;64.72;26.23;;;;;;;10.87;98.79;101253.47;5092950;28;20028;-45
2022/06/22 01:29:24;;;;;;;59.83;27.23;;;;;;;10.91;99.67;101259.63;5091755;28;20025;-45
2022/06/22 01:32:06;;;;;;;53.80;26.05;;;;;;;10.91;98.78;101243.25;5092538;28;20481;-47
2022/06/22 01:34:35;;;;;;;51.50;25.00;;;;;;;10.80;97.36;101248.91;5092792;28;20019;-44
2022/06/22 01:37:04;;;;;;;49.28;23.88;;;;;;;10.67;96.55;101237.28;5091754;28;20534;-45
2022/06/22 01:39:30;;;;;;;48.25;26.40;;;;;;;10.67;97.60;101237.28;5092740;28;20028;-46
2022/06/22 01:42:04;;;;;;;54.90;26.05;;;;;;;10.61;97.98;101223.31;5091615;28;20020;-44
2022/06/22 01:44:49;;;;;;;48.40;26.13;;;;;;;10.58;98.24;101218.06;5092420;28;20028;-45
2022/06/22 01:47:22;;;;;;;60.67;28.77;;;;;;;10.56;99.30;101209.38;5092843;28;20102;-47
2022/06/22 01:50:03;;;;;;;66.93;30.08;;;;;;;10.60;100.00;101203.50;5091949;28;20116;-44
2022/06/22 01:52:51;;;;;;;63.47;29.55;;;;;;;10.66;100.00;101201.16;5092534;28;20055;-45
2022/06/22 01:55:31;;;;;;;58.42;30.05;;;;;;;10.70;100.00;101205.56;5092478;28;20083;-44
2022/06/22 01:58:11;;;;;;;64.20;28.85;;;;;;;10.71;100.00;101215.94;5091578;28;20055;-45
2022/06/22 02:00:38;;;;;;;55.42;29.02;;;;;;;10.74;100.00;101220.31;5092687;28;20039;-46
2022/06/22 02:03:29;;;;;;;65.32;29.52;;;;;;;10.74;100.00;101212.59;5091581;28;20032;-45
2022/06/22 02:07:44;;;;;;;57.65;29.13;;;;;;;10.70;100.00;101205.56;5092230;28;20107;-45
2022/06/22 02:08:51;;;;;;;62.22;29.70;;;;;;;10.68;100.00;101205.53;5095550;28;20089;-45
2022/06/22 02:11:22;;;;;;;50.80;28.50;;;;;;;10.67;100.00;101208.06;5095349;28;20012;-44
2022/06/22 02:14:00;;;;;;;65.28;30.95;;;;;;;10.72;100.00;101214.25;5096061;28;20024;-44
2022/06/22 02:16:33;;;;;;;69.50;28.80;;;;;;;10.72;100.00;101211.69;5096125;28;20031;-44
2022/06/22 02:18:58;;;;;;;58.92;30.20;;;;;;;10.70;100.00;101211.63;5095238;28;20027;-44
2022/06/22 02:21:41;;;;;;;58.30;29.23;;;;;;;10.66;100.00;101216.59;5095821;28;20024;-44
2022/06/22 02:24:27;;;;;;;53.83;27.88;;;;;;;10.61;100.00;101213.00;5094900;28;20020;-44
2022/06/22 02:26:57;;;;;;;60.35;30.17;;;;;;;10.64;100.00;101211.41;5095860;28;20031;-45
2022/06/22 02:29:30;;;;;;;59.65;30.20;;;;;;;10.67;100.00;101210.63;5095831;28;20021;-46
2022/06/22 02:31:59;;;;;;;64.57;30.40;;;;;;;10.67;100.00;101203.75;5094725;28;20379;-45
2022/06/22 02:34:25;;;;;;;55.28;27.40;;;;;;;10.58;100.00;101189.69;5095599;28;20020;-45
2022/06/22 02:36:53;;;;;;;52.60;26.00;;;;;;;10.51;99.77;101174.00;5095418;28;20039;-46
2022/06/22 02:39:20;;;;;;;55.40;29.05;;;;;;;10.45;99.83;101173.78;5094670;28;20079;-46
2022/06/22 02:44:35;;;;;;;65.63;30.50;;;;;;;10.47;100.00;101164.44;5095812;28;20126;-44
2022/06/22 02:47:29;;;;;;;67.95;30.50;;;;;;;10.46;100.00;101178.13;5094605;28;20024;-44
2022/06/22 02:50:14;;;;;;;57.83;30.08;;;;;;;10.43;100.00;101184.88;5095173;28;20012;-47
2022/06/22 02:52:45;;;;;;;73.68;33.45;;;;;;;10.53;100.00;101194.69;5094764;28;20059;-44
2022/06/22 02:55:15;;;;;;;68.95;31.10;;;;;;;10.49;100.00;101196.25;5095057;28;20034;-44
2022/06/22 02:57:46;;;;;;;60.75;29.55;;;;;;;10.39;100.00;101191.59;5095043;28;20124;-44
2022/06/22 03:00:14;;;;;;;63.80;29.42;;;;;;;10.36;100.00;101199.25;5094239;28;20021;-44
2022/06/22 03:02:41;;;;;;;58.72;30.02;;;;;;;10.36;100.00;101194.09;5094950;28;20472;-45
2022/06/22 03:05:08;;;;;;;54.88;27.10;;;;;;;10.29;100.00;101184.34;5094823;28;20028;-45
2022/06/22 03:07:42;;;;;;;65.82;29.75;;;;;;;10.30;100.00;101196.41;5094238;28;20585;-44
2022/06/22 03:10:17;;;;;;;69.03;30.25;;;;;;;10.33;100.00;101201.69;5094769;28;20020;-46
2022/06/22 03:12:42;;;;;;;66.93;33.50;;;;;;;10.34;100.00;101206.00;5095198;28;20024;-44
2022/06/22 03:15:17;;;;;;;65.63;30.67;;;;;;;10.31;100.00;101205.88;5094034;28;20027;-44
2022/06/22 03:17:42;;;;;;;62.58;29.10;;;;;;;10.30;100.00;101207.59;5094518;28;20031;-45
2022/06/22 03:20:21;;;;;;;55.08;29.85;;;;;;;10.26;100.00;101199.69;5094531;28;20024;-45
2022/06/22 03:22:58;;;;;;;62.35;29.80;;;;;;;10.19;100.00;101198.59;5094544;28;20479;-46
2022/06/22 03:25:48;;;;;;;53.47;28.08;;;;;;;10.14;100.00;101194.97;5094615;28;20036;-46
2022/06/22 03:28:18;;;;;;;52.83;29.40;;;;;;;10.03;100.00;101194.56;5093696;28;20039;-45
2022/06/22 03:31:08;;;;;;;54.92;29.30;;;;;;;9.99;100.00;101187.53;5094797;28;20020;-45
2022/06/22 03:33:44;;;;;;;64.75;30.08;;;;;;;9.93;100.00;101187.31;5094541;28;20476;-45
2022/06/22 03:36:19;;;;;;;78.05;33.00;;;;;;;9.98;100.00;101188.34;5093678;28;20035;-45
2022/06/22 03:38:51;;;;;;;75.85;35.50;;;;;;;9.99;100.00;101184.97;5094521;28;20028;-44
2022/06/22 03:41:19;;;;;;;69.90;34.22;;;;;;;9.99;100.00;101190.13;5093944;28;20020;-46
2022/06/22 03:43:48;;;;;;;67.57;33.30;;;;;;;9.99;100.00;101184.97;5094249;28;20051;-47
2022/06/22 03:46:21;;;;;;;73.40;33.78;;;;;;;10.02;100.00;101195.41;5094171;28;20103;-44
2022/06/22 03:48:55;;;;;;;70.13;34.75;;;;;;;10.02;100.00;101185.09;5093679;28;20044;-45
2022/06/22 03:51:41;;;;;;;79.28;34.67;;;;;;;10.03;100.00;101174.84;5094140;28;20027;-45
2022/06/22 03:54:36;;;;;;;71.97;35.10;;;;;;;10.06;100.00;101174.09;5093883;28;20032;-47
2022/06/22 03:57:07;;;;;;;77.57;35.90;;;;;;;10.08;100.00;101169.84;5093133;28;20054;-47
2022/06/22 03:59:40;;;;;;;82.32;35.95;;;;;;;10.13;100.00;101178.63;5093957;28;20028;-44
2022/06/22 04:02:06;;;;;;;76.47;36.35;;;;;;;10.14;100.00;101170.09;5093891;28;20023;-45
2022/06/22 04:04:32;;;;;;;85.13;36.10;;;;;;;10.17;100.00;101169.31;5093068;28;20081;-44
2022/06/22 04:06:58;;;;;;;79.43;36.85;;;;;;;10.21;100.00;101174.66;5093927;28;20020;-45
2022/06/22 04:09:25;;;;;;;86.45;36.83;;;;;;;10.23;100.00;101169.53;5093556;28;20035;-45
2022/06/22 04:11:50;;;;;;;;;;;;;;;10.26;100.00;101163.63;5094202;28;20039;-44
2022/06/22 04:14:25;;;;;;;83.45;36.05;;;;;;;10.30;100.00;101165.47;5093738;28;19916;-44
2022/06/22 04:16:55;;;;;;;92.90;37.97;;;;;;;10.34;100.00;101159.63;5092603;28;20161;-44
2022/06/22 04:19:40;;;;;;;91.80;39.08;;;;;;;10.36;100.00;101161.44;5093508;28;20464;-45
2022/06/22 04:22:12;;;;;;;87.57;37.70;;;;;;;10.40;100.00;101171.88;5093508;28;20035;-45
2022/06/22 04:24:49;;;;;;;84.32;37.35;;;;;;;10.42;100.00;101176.28;5092940;28;20056;-45
2022/06/22 04:27:26;;;;;;;91.13;39.08;;;;;;;10.47;100.00;101179.00;5093474;28;20058;-44
2022/06/22 04:30:15;;;;;;;89.47;37.60;;;;;;;10.53;100.00;101184.38;5092526;28;20472;-45
2022/06/22 04:33:06;;;;;;;89.85;38.97;;;;;;;10.57;100.00;101177.63;5092889;28;20028;-46
2022/06/22 04:36:27;;;;;;;83.15;38.25;;;;;;;10.62;100.00;101183.81;5093377;28;20024;-46
2022/06/22 04:39:07;;;;;;;83.35;38.88;;;;;;;10.69;100.00;101191.81;5086902;28;20031;-46
2022/06/22 04:41:40;;;;;;;96.28;42.38;;;;;;;10.78;100.00;101204.16;5093352;28;20030;-45
2022/06/22 04:44:14;;;;;;;86.85;40.65;;;;;;;10.84;100.00;101206.06;5092894;28;20630;-46
2022/06/22 04:46:43;;;;;;;86.05;40.65;;;;;;;10.91;100.00;101200.31;5092385;28;20409;-47
2022/06/22 04:49:29;;;;;;;101.47;41.78;;;;;;;10.98;100.00;101198.78;5092940;28;20028;-45
2022/06/22 04:52:03;;;;;;;103.97;42.42;;;;;;;11.07;100.00;101187.91;5092304;28;20016;-44
2022/06/22 04:54:33;;;;;;;104.63;43.75;;;;;;;11.15;100.00;101192.47;5092995;28;20023;-44
2022/06/22 04:57:04;;;;;;;98.75;43.50;;;;;;;11.24;100.00;101191.03;5092975;28;20043;-44
2022/06/22 04:59:31;;;;;;;119.45;45.33;;;;;;;11.33;100.00;101197.34;5092281;28;20018;-47
2022/06/22 05:02:01;;;;;;;93.72;43.50;;;;;;;11.41;100.00;101201.91;5092666;28;20502;-46
2022/06/22 05:04:39;;;;;;;104.47;45.45;;;;;;;11.48;100.00;101204.72;5092832;28;20030;-45
2022/06/22 05:07:34;;;;;;;102.95;43.72;;;;;;;11.56;100.00;101206.69;5091949;28;20364;-44
2022/06/22 05:10:16;;;;;;;108.55;44.95;;;;;;;11.62;100.00;101214.59;5092860;28;20039;-45
2022/06/22 05:12:52;;;;;;;105.70;44.30;;;;;;;11.70;100.00;101218.31;5092309;28;20021;-48
2022/06/22 05:15:23;;;;;;;112.32;47.15;;;;;;;11.82;100.00;101221.25;5092743;28;20032;-45
2022/06/22 05:17:49;;;;;;;111.38;47.42;;;;;;;11.91;100.00;101222.38;5093030;28;20076;-44
2022/06/22 05:20:30;;;;;;;100.55;45.20;;;;;;;11.97;100.00;101222.59;5091796;28;20103;-45
2022/06/22 05:23:00;;;;;;;105.07;46.00;;;;;;;12.08;100.00;101226.34;5092565;28;20098;-45
2022/06/22 05:25:27;;;;;;;102.68;47.13;;;;;;;12.19;100.00;101227.56;5092634;28;20024;-47
2022/06/22 05:28:06;;;;;;;114.55;47.88;;;;;;;12.29;100.00;101231.28;5091772;28;20043;-45
2022/06/22 05:30:38;;;;;;;105.05;46.80;;;;;;;12.40;100.00;101229.00;5092598;28;20478;-44
2022/06/22 05:33:08;;;;;;;102.15;45.28;;;;;;;12.49;100.00;101231.84;5092476;28;20490;-45
2022/06/22 05:35:39;;;;;;;96.78;42.97;;;;;;;12.56;100.00;101225.13;5092015;28;20028;-45
2022/06/22 05:38:07;;;;;;;98.90;44.33;;;;;;;12.66;100.00;101226.25;5092625;28;20024;-45
2022/06/22 05:40:34;;;;;;;100.00;45.40;;;;;;;12.73;100.00;101227.28;5092635;28;20490;-46
2022/06/22 05:42:59;;;;;;;93.57;41.85;;;;;;;12.76;100.00;101233.44;5095642;28;20035;-46
2022/06/22 05:45:29;;;;;;;101.47;43.53;;;;;;;12.81;100.00;101228.38;5096702;28;20024;-45
2022/06/22 05:47:56;;;;;;;94.10;42.28;;;;;;;12.84;100.00;101231.03;5095696;28;20024;-45
2022/06/22 05:50:43;;;;;;;103.53;44.80;;;;;;;12.91;100.00;101229.50;5096454;28;20031;-46
2022/06/22 05:53:43;;;;;;;95.65;45.30;;;;;;;12.98;100.00;101227.09;5096431;28;20057;-45
2022/06/22 05:56:36;;;;;;;92.53;43.80;;;;;;;13.05;100.00;101229.84;4993716;28;20069;-45
2022/06/22 05:59:12;;;;;;;108.85;45.05;;;;;;;13.13;100.00;101236.09;5093447;28;20491;-46
2022/06/22 06:01:59;;;;;;;98.05;45.42;;;;;;;13.22;100.00;101245.81;5096598;28;20028;-47
2022/06/22 06:04:43;;;;;;;99.85;42.80;;;;;;;13.29;100.00;101250.31;5096072;28;20493;-46
2022/06/22 06:07:18;;;;;;;86.00;41.35;;;;;;;13.38;100.00;101255.75;5095969;28;20032;-45
2022/06/22 06:09:45;;;;;;;100.10;42.25;;;;;;;13.41;100.00;101255.81;5095682;28;20115;-45
2022/06/22 06:12:18;;;;;;;89.00;39.42;;;;;;;13.47;100.00;101255.97;5095982;28;20024;-45
2022/06/22 06:14:48;;;;;;;94.45;42.63;;;;;;;13.56;100.00;101262.22;5096160;28;20024;-46
2022/06/22 06:17:35;;;;;;;91.75;42.50;;;;;;;13.60;100.00;101266.63;5095075;28;20028;-45
2022/06/22 06:20:03;;;;;;;97.27;44.67;;;;;;;13.70;100.00;101268.59;5095813;28;20043;-46
2022/06/22 06:22:31;;;;;;;93.28;41.67;;;;;;;13.76;100.00;101268.75;5095795;28;20278;-47
2022/06/22 06:28:04;;;;;;;84.20;40.28;;;;;;;13.93;100.00;101276.00;5096036;28;20075;-46
2022/06/22 06:30:36;;;;;;;89.40;41.28;;;;;;;14.00;100.00;101262.34;5094925;28;20467;-46
2022/06/22 06:33:09;;;;;;;83.00;41.08;;;;;;;14.11;100.00;101259.97;5095799;28;20024;-45
2022/06/22 06:35:37;;;;;;;92.95;42.38;;;;;;;14.24;100.00;101255.94;5095641;28;20452;-47
2022/06/22 06:38:15;;;;;;;91.60;42.80;;;;;;;14.32;100.00;101254.41;5094858;28;20036;-47
2022/06/22 06:40:48;;;;;;;87.90;40.25;;;;;;;14.47;100.00;101259.91;5095486;28;20093;-47
2022/06/22 06:43:13;;;;;;;85.10;41.28;;;;;;;14.54;99.89;101262.59;5095396;28;20058;-46
2022/06/22 06:45:40;;;;;;;87.10;41.10;;;;;;;14.63;98.84;101260.19;5094829;28;20052;-47
2022/06/22 06:48:12;;;;;;;78.97;40.30;;;;;;;14.74;97.08;101260.44;5095388;28;20020;-45
2022/06/22 06:50:47;;;;;;;86.07;42.60;;;;;;;14.86;99.19;101246.81;5095444;28;20030;-45
2022/06/22 06:53:36;;;;;;;79.95;40.40;;;;;;;14.93;97.82;101243.50;5093465;28;20020;-46
2022/06/22 06:56:17;;;;;;;91.05;41.42;;;;;;;15.08;98.92;101242.88;5095265;28;20099;-46
2022/06/22 06:58:48;;;;;;;79.35;39.72;;;;;;;15.17;96.91;101237.84;5094408;28;20454;-50
2022/06/22 07:01:24;;;;;;;78.50;38.53;;;;;;;15.27;96.77;101233.66;5094881;28;20028;-46
2022/06/22 07:03:53;;;;;;;88.68;41.85;;;;;;;15.41;98.28;101228.72;5095245;28;20024;-46
2022/06/22 07:06:19;;;;;;;74.82;38.38;;;;;;;15.51;96.98;101224.53;5094370;28;20020;-46
2022/06/22 07:09:17;;;;;;;69.32;35.60;;;;;;;15.61;95.53;101214.31;5094933;28;20027;-45
2022/06/22 07:11:48;;;;;;;70.55;35.60;;;;;;;15.74;94.55;101220.56;5094566;28;20476;-46
2022/06/22 07:14:25;;;;;;;78.45;37.47;;;;;;;15.85;92.09;101222.47;5093932;28;20074;-45
2022/06/22 07:16:53;;;;;;;72.47;35.83;;;;;;;15.97;92.16;101227.81;5094897;28;20020;-46
2022/06/22 07:19:25;;;;;;;69.93;36.22;;;;;;;16.15;92.15;101221.09;5094063;28;20149;-47
2022/06/22 07:21:58;;;;;;;68.97;32.83;;;;;;;16.32;88.17;101222.19;5094760;28;20035;-46
2022/06/22 07:24:47;;;;;;;73.45;33.75;;;;;;;16.52;88.81;101216.34;5094616;28;20024;-46
2022/06/22 07:27:27;;;;;;;61.53;29.80;;;;;;;16.68;85.25;101220.88;5093853;28;20043;-45
2022/06/22 07:30:09;;;;;;;60.53;29.92;;;;;;;16.89;86.07;101221.94;5094590;28;20074;-47
2022/06/22 07:32:34;;;;;;;57.90;30.30;;;;;;;17.11;83.29;101215.22;5094578;28;20028;-45
2022/06/22 07:35:18;;;;;;;63.00;28.63;;;;;;;17.27;83.54;101206.69;5093520;28;20081;-46
2022/06/22 07:38:02;;;;;;;56.83;27.88;;;;;;;17.47;83.29;101192.91;5094403;28;20356;-45
2022/06/22 07:40:30;;;;;;;56.63;26.67;;;;;;;17.56;78.08;101185.16;5093644;28;20375;-46
2022/06/22 07:42:57;;;;;;;49.47;26.30;;;;;;;17.67;77.19;101193.03;5094022;28;20472;-46
2022/06/22 07:45:24;;;;;;;45.95;24.15;;;;;;;17.73;74.62;101193.06;5093859;28;20020;-46
2022/06/22 07:47:55;;;;;;;45.85;24.33;;;;;;;17.82;74.39;101212.22;5093489;28;20047;-46
2022/06/22 07:50:26;;;;;;;41.03;23.23;;;;;;;17.91;75.46;101202.72;5094281;28;20046;-49
2022/06/22 07:53:14;;;;;;;41.70;24.45;;;;;;;18.06;79.05;101211.50;5094154;28;20028;-46
2022/06/22 07:56:04;;;;;;;46.53;23.52;;;;;;;18.14;77.71;101215.03;5093398;28;20129;-46
2022/06/22 07:58:36;;;;;;;45.10;24.02;;;;;;;18.20;75.65;101216.78;5093681;28;20056;-46
2022/06/22 08:01:09;;;;;;;45.92;21.70;;;;;;;18.23;74.14;101217.66;5093894;28;20032;-46
2022/06/22 08:03:44;;;;;;;40.78;21.05;;;;;;;18.26;73.56;101217.66;5093203;28;20035;-47
2022/06/22 08:06:15;;;;;;;39.05;21.17;;;;;;;18.26;74.34;101215.06;5092463;28;20466;-47
2022/06/22 08:08:46;;;;;;;43.85;20.92;;;;;;;18.28;71.65;101207.22;5093241;28;20024;-47
2022/06/22 08:11:26;;;;;;;40.67;21.17;;;;;;;18.32;72.72;101209.00;5093755;28;20074;-47
2022/06/22 08:14:13;;;;;;;36.03;18.50;;;;;;;18.31;71.63;101207.25;5093641;28;20026;-48
2022/06/22 08:16:43;;;;;;;31.73;18.00;;;;;;;18.30;70.52;101215.09;5092967;28;20031;-47
2022/06/22 08:19:10;;;;;;;40.50;16.58;;;;;;;18.37;69.51;101216.84;5093306;28;20957;-47
2022/06/22 08:21:47;;;;;;;32.97;17.92;;;;;;;18.51;69.56;101214.28;5093756;28;20024;-47
2022/06/22 08:24:15;;;;;;;32.55;16.90;;;;;;;18.66;69.11;101214.31;5092580;28;20030;-47
2022/06/22 08:26:41;;;;;;;35.03;18.30;;;;;;;18.78;70.73;101220.44;5093475;28;20023;-47
2022/06/22 08:29:08;;;;;;;30.42;16.63;;;;;;;18.88;70.67;101224.78;5092918;28;20073;-47
2022/06/22 08:31:42;;;;;;;31.95;15.25;;;;;;;18.98;67.95;101226.59;5092834;28;20020;-47
2022/06/22 08:34:11;;;;;;;31.75;15.80;;;;;;;19.08;68.92;101227.44;5093275;28;20039;-50
2022/06/22 08:36:48;;;;;;;29.45;15.45;;;;;;;19.22;69.06;101223.09;5093509;28;20024;-47
2022/06/22 08:39:31;;;;;;;30.90;13.60;;;;;;;19.35;67.48;101226.59;5093123;28;20377;-47
2022/06/22 08:42:19;;;;;;;31.38;13.82;;;;;;;19.49;65.44;101223.06;5093366;28;20107;-47
2022/06/22 08:45:23;;;;;;;28.15;13.35;;;;;;;19.66;66.49;101223.91;5092729;28;20074;-47
2022/06/22 08:47:51;;;;;;;20.92;11.43;;;;;;;19.81;63.58;101230.84;5093111;28;20352;-47
2022/06/22 08:50:44;;;;;;;29.75;12.02;;;;;;;20.00;63.91;101236.94;5093160;28;20047;-47
2022/06/22 08:53:34;;;;;;;28.90;12.90;;;;;;;20.22;63.73;101232.50;5092839;28;20036;-47
2022/06/22 08:56:16;;;;;;;21.80;11.57;;;;;;;20.37;61.55;101228.94;5092906;28;20105;-49
2022/06/22 08:59:13;;;;;;;22.05;11.93;;;;;;;20.40;61.48;101225.44;5092198;28;20412;-46
2022/06/22 09:02:06;;;;;;;22.45;10.90;;;;;;;20.46;58.98;101233.25;5093115;28;20024;-48
2022/06/22 09:05:09;;;;;;;21.38;11.50;;;;;;;20.55;61.17;101219.22;5092719;28;20032;-48
2022/06/22 09:07:53;;;;;;;23.98;12.98;;;;;;;20.66;59.31;101222.66;5093048;28;20105;-48
2022/06/22 09:10:36;;;;;;;22.73;10.48;;;;;;;20.79;62.01;101214.78;5092914;28;20119;-48
2022/06/22 09:13:36;;;;;;;21.08;9.93;;;;;;;20.96;60.26;101220.72;5091936;28;20077;-47
2022/06/22 09:16:22;;;;;;;20.65;10.10;;;;;;;21.08;59.25;101224.16;5092325;28;20107;-48
2022/06/22 09:19:05;;;;;;;21.17;9.00;;;;;;;21.22;58.18;101222.28;5092770;28;20039;-49
2022/06/22 09:21:58;;;;;;;20.08;9.45;;;;;;;21.34;55.08;101232.66;5092908;28;20028;-47
2022/06/22 09:24:40;;;;;;;19.35;9.48;;;;;;;21.44;55.33;101228.19;5092771;28;20051;-48
2022/06/22 09:27:16;;;;;;;18.42;7.85;;;;;;;21.62;55.35;101232.41;5092041;28;20032;-48
2022/06/22 09:30:12;;;;;;;22.70;8.20;;;;;;;21.77;55.33;101234.03;5092753;28;20483;-47
2022/06/22 09:32:52;;;;;;;21.95;6.90;;;;;;;21.93;53.15;101226.84;5092927;28;20020;-47
2022/06/22 09:35:38;;;;;;;20.25;8.18;;;;;;;22.13;52.51;101238.84;5091776;28;20548;-48
2022/06/22 09:38:26;;;;;;;16.97;8.33;;;;;;;22.23;50.69;101240.47;5092664;28;20052;-48
2022/06/22 09:41:28;;;;;;;19.65;8.32;;;;;;;22.42;52.11;101243.75;5091943;28;20028;-48
2022/06/22 09:43:59;;;;;;;18.15;6.57;;;;;;;22.68;52.74;101232.03;5092534;28;20020;-48
2022/06/22 09:46:50;;;;;;;15.27;7.18;;;;;;;22.81;50.88;101235.34;5092732;28;20034;-48
2022/06/22 09:49:29;;;;;;;14.05;5.95;;;;;;;22.91;45.77;101239.56;5091808;28;20463;-48
2022/06/22 09:52:06;;;;;;;13.90;6.15;;;;;;;23.22;47.05;101236.47;5092487;28;20028;-49
2022/06/22 09:57:31;;;;;;;12.73;5.72;;;;;;;23.80;44.79;101238.94;5092370;28;20128;-48
2022/06/22 10:00:05;;;;;;;20.40;5.22;;;;;;;23.90;44.92;101236.97;5092382;28;20024;-48
2022/06/22 10:02:55;;;;;;;12.40;5.57;;;;;;;24.01;44.38;101237.66;5091607;28;20035;-49
2022/06/22 10:05:54;;;;;;;14.27;5.20;;;;;;;24.18;46.19;101229.41;5092260;28;20020;-47
2022/06/22 10:08:28;;;;;;;18.73;5.30;;;;;;;24.47;43.63;101231.41;5091601;28;20077;-47
2022/06/22 10:11:11;;;;;;;14.07;5.20;;;;;;;24.64;43.76;101236.34;5092257;28;20380;-49
2022/06/22 10:13:57;;;;;;;15.15;6.95;;;;;;;25.50;41.17;101224.59;5092288;28;20521;-49
2022/06/22 10:17:09;;;;;;;15.60;5.53;;;;;;;26.12;42.74;101228.19;5091703;28;20024;-48
2022/06/22 10:20:08;;;;;;;12.35;5.30;;;;;;;26.50;40.40;101220.00;5050766;28;20036;-48
2022/06/22 10:22:51;;;;;;;14.32;5.72;;;;;;;27.40;38.92;101228.56;5091546;28;20038;-48
2022/06/22 10:25:37;;;;;;;13.57;5.82;;;;;;;28.45;36.91;101223.84;5092108;28;20024;-48
2022/06/22 10:28:29;;;;;;;13.15;4.57;;;;;;;29.44;33.82;101215.38;5092795;28;20114;-47
2022/06/22 10:31:28;;;;;;;12.00;4.63;;;;;;;30.11;32.59;101213.28;5094940;28;20024;-47
2022/06/22 10:34:39;;;;;;;14.07;4.75;;;;;;;31.00;35.53;101209.88;5095624;28;20074;-46
2022/06/22 10:37:13;;;;;;;13.82;4.43;;;;;;;31.89;30.67;101208.88;5094870;28;20043;-52
2022/06/22 10:40:03;;;;;;;10.50;4.85;;;;;;;32.61;30.98;101206.66;5095702;28;20070;-51
2022/06/22 10:45:37;;;;;;;12.77;4.63;;;;;;;33.60;26.12;101196.31;5095113;28;20073;-50
2022/06/22 10:48:37;;;;;;;11.52;5.10;;;;;;;33.82;29.07;101200.34;5095349;28;20115;-51
2022/06/22 10:51:28;;;;;;;8.15;5.00;;;;;;;33.24;27.09;101200.28;5032161;28;20052;-51
2022/06/22 10:54:12;;;;;;;13.23;4.80;;;;;;;32.82;27.01;101194.75;5092916;28;20043;-50
2022/06/22 10:56:49;;;;;;;11.82;4.60;;;;;;;33.35;26.34;101186.31;5095338;28;20059;-51
2022/06/22 10:59:43;;;;;;;9.48;4.90;;;;;;;33.82;26.66;101195.00;5094266;28;20462;-50
2022/06/22 11:02:55;;;;;;;10.85;4.47;;;;;;;33.96;27.84;101196.81;5095101;28;20024;-51
2022/06/22 11:05:32;;;;;;;15.90;4.35;;;;;;;34.16;25.68;101197.34;5094300;28;20032;-52
2022/06/22 11:08:28;;;;;;;13.07;3.72;;;;;;;34.30;25.99;101200.81;5094861;28;20509;-51
2022/06/22 11:11:01;;;;;;;13.55;3.88;;;;;;;34.43;25.98;101200.91;5095077;28;20032;-51
2022/06/22 11:13:59;;;;;;;13.95;4.20;;;;;;;35.09;24.18;101192.09;5094216;28;20229;-51
2022/06/22 11:16:47;;;;;;;11.60;3.70;;;;;;;35.45;24.58;101201.22;5095011;28;20032;-53
2022/06/22 11:19:33;;;;;;;10.45;4.57;;;;;;;35.56;23.82;101200.47;5093922;28;20043;-52
2022/06/22 11:22:25;;;;;;;14.00;4.60;;;;;;;35.29;24.41;101188.03;5094662;28;20028;-52
2022/06/22 11:25:06;;;;;;;9.63;4.22;;;;;;;34.79;23.54;101187.84;5094888;28;20032;-52
2022/06/22 11:30:52;;;;;;;10.68;3.63;;;;;;;34.30;26.52;101190.09;5094470;28;20038;-51
2022/06/22 11:33:44;;;;;;;12.07;3.67;;;;;;;34.36;24.44;101188.03;5093997;28;20024;-52
2022/06/22 11:36:15;;;;;;;6.70;3.90;;;;;;;34.55;23.86;101187.66;5094376;28;20123;-51
2022/06/22 11:38:55;;;;;;;13.07;4.00;;;;;;;34.62;21.74;101189.81;5094172;28;20544;-52
2022/06/22 11:41:40;;;;;;;10.25;3.28;;;;;;;34.43;23.64;101192.88;5093842;28;20028;-52
2022/06/22 11:44:27;;;;;;;8.87;3.33;;;;;;;34.57;22.56;101191.09;5094232;28;20050;-51
2022/06/22 11:46:56;;;;;;;8.40;2.83;;;;;;;34.73;22.84;101199.84;5093322;28;20152;-51
2022/06/22 11:49:36;;;;;;;6.75;2.10;;;;;;;35.11;21.04;101196.38;5094674;28;20020;-51
2022/06/22 11:52:17;;;;;;;10.07;3.10;;;;;;;35.43;20.42;101205.84;5094068;28;20031;-52
2022/06/22 11:54:54;;;;;;;9.93;2.50;;;;;;;35.69;22.89;101201.31;5093654;28;20032;-52
2022/06/22 11:58:02;;;;;;;8.80;2.83;;;;;;;36.48;23.92;101202.84;5093908;28;20129;-52
2022/06/22 12:00:35;;;;;;;8.18;2.30;;;;;;;36.12;19.99;101185.81;5085985;28;20408;-52
2022/06/22 12:03:40;;;;;;;5.97;2.50;;;;;;;37.00;22.52;101193.50;5093209;28;20020;-52
2022/06/22 12:06:17;;;;;;;9.98;2.83;;;;;;;36.60;20.97;101177.75;5094040;28;20036;-52
2022/06/22 12:08:42;;;;;;;8.68;2.80;;;;;;;36.49;21.33;101183.94;5093311;28;20078;-52
2022/06/22 12:11:14;;;;;;;5.17;2.50;;;;;;;36.82;20.70;101189.53;5093772;28;20052;-52
2022/06/22 12:13:39;;;;;;;7.47;2.20;;;;;;;36.77;20.14;101183.66;5093863;28;20094;-52
2022/06/22 12:16:27;;;;;;;10.47;2.53;;;;;;;37.15;21.41;101183.41;5092911;28;20103;-52